Time;durP1;ratioP1;P1;durP2;ratioP2;P2;SDS_P1;SDS_P2;PMS_P1;PMS_P2;Temp;Humidity;BMP_temperature;BMP_pressure;BME280_temperature;BME280_humidity;BME280_pressure;Samples;Min_cycle;Max_cycle;Signal;HPM_P1;HPM_P2
2023/09/11 00:00:48;;;;;;;95.67;68.27;;;22.60;99.90;;;;;;4974044;28;20184;-78
2023/09/11 00:03:13;;;;;;;99.80;67.30;;;22.70;99.90;;;;;;4977520;28;20580;-77
2023/09/11 00:05:39;;;;;;;100.47;75.10;;;22.70;99.90;;;;;;4960045;28;20498;-77
2023/09/11 00:08:05;;;;;;;100.10;72.70;;;22.60;99.90;;;;;;4960065;28;20269;-77
2023/09/11 00:10:32;;;;;;;100.90;76.90;;;22.70;99.90;;;;;;4977307;28;20192;-78
2023/09/11 00:13:01;;;;;;;101.17;77.17;;;22.60;99.90;;;;;;4977390;28;20164;-77
2023/09/11 00:15:27;;;;;;;99.37;80.60;;;22.60;99.90;;;;;;4960031;28;20415;-77
2023/09/11 00:17:52;;;;;;;98.57;75.97;;;22.50;99.90;;;;;;4977595;28;20466;-77
2023/09/11 00:20:18;;;;;;;96.17;72.37;;;22.50;99.90;;;;;;4978074;28;20275;-78
2023/09/11 00:22:44;;;;;;;104.23;85.20;;;22.60;99.90;;;;;;4977153;28;20168;-77
2023/09/11 00:25:09;;;;;;;103.13;76.93;;;22.50;99.90;;;;;;4977094;28;20513;-77
2023/09/11 00:27:38;;;;;;;101.10;78.17;;;22.10;99.90;;;;;;4977102;28;20644;-77
2023/09/11 00:30:06;;;;;;;102.20;81.47;;;22.10;99.90;;;;;;4976915;28;20192;-78
2023/09/11 00:32:31;;;;;;;112.60;81.43;;;22.20;99.90;;;;;;4976885;28;20754;-77
2023/09/11 00:34:57;;;;;;;106.93;88.20;;;22.10;99.90;;;;;;4977151;28;20402;-77
2023/09/11 00:37:23;;;;;;;104.17;79.57;;;22.00;99.90;;;;;;4976907;28;20195;-77
2023/09/11 00:39:48;;;;;;;101.33;81.03;;;22.10;99.90;;;;;;4976692;28;20196;-78
2023/09/11 00:42:14;;;;;;;103.60;79.33;;;22.20;99.90;;;;;;4976832;28;20579;-78
2023/09/11 00:44:40;;;;;;;105.93;90.43;;;22.10;99.90;;;;;;4976748;28;20171;-77
2023/09/11 00:47:06;;;;;;;104.27;81.70;;;22.10;99.90;;;;;;4976933;28;20168;-77
2023/09/11 00:49:32;;;;;;;105.97;90.27;;;22.10;99.90;;;;;;4976576;28;20219;-78
2023/09/11 00:51:58;;;;;;;103.60;89.83;;;22.10;99.90;;;;;;4976635;28;20407;-77
2023/09/11 00:54:24;;;;;;;103.90;73.17;;;22.20;99.90;;;;;;4976512;28;20458;-77
2023/09/11 00:56:50;;;;;;;102.00;74.57;;;22.00;99.90;;;;;;4959046;28;20466;-77
2023/09/11 00:59:17;;;;;;;100.40;72.30;;;21.80;99.90;;;;;;4976431;28;20501;-77
2023/09/11 01:01:44;;;;;;;113.20;96.13;;;21.80;99.90;;;;;;4976391;28;20478;-78
2023/09/11 01:04:10;;;;;;;103.93;82.50;;;22.00;99.90;;;;;;4976402;28;20807;-77
2023/09/11 01:06:36;;;;;;;104.17;73.10;;;22.00;99.90;;;;;;4976314;28;20450;-77
2023/09/11 01:09:03;;;;;;;110.60;76.37;;;21.80;99.90;;;;;;4976373;28;20176;-77
2023/09/11 01:11:28;;;;;;;109.10;85.27;;;21.80;99.90;;;;;;4976193;28;20455;-77
2023/09/11 01:13:55;;;;;;;111.27;85.97;;;21.90;99.90;;;;;;4975959;28;20443;-77
2023/09/11 01:16:35;;;;;;;111.10;91.07;;;21.80;99.90;;;;;;4976475;28;20191;-77
2023/09/11 01:19:14;;;;;;;107.53;89.80;;;21.90;99.90;;;;;;4976086;28;20962;-77
2023/09/11 01:21:54;;;;;;;114.80;85.90;;;21.90;99.90;;;;;;4976099;28;20427;-78
2023/09/11 01:25:01;;;;;;;105.50;78.57;;;21.80;99.90;;;;;;4976343;28;20947;-77
2023/09/11 01:27:27;;;;;;;108.73;81.37;;;21.70;99.90;;;;;;4956200;28;20443;-77
2023/09/11 01:29:56;;;;;;;112.70;79.37;;;21.70;99.90;;;;;;4976132;28;20466;-77
2023/09/11 01:32:25;;;;;;;109.90;82.20;;;21.60;99.90;;;;;;4975944;28;20168;-77
2023/09/11 01:34:51;;;;;;;106.30;70.37;;;21.50;99.90;;;;;;4976146;28;20411;-77
2023/09/11 01:37:17;;;;;;;103.23;65.10;;;21.40;99.90;;;;;;4975797;28;20408;-77
2023/09/11 01:39:43;;;;;;;105.63;59.37;;;21.40;99.90;;;;;;4975649;28;20454;-77
2023/09/11 01:42:13;;;;;;;100.70;69.90;;;21.40;99.90;;;;;;4958585;28;20586;-77
2023/09/11 01:44:47;;;;;;;105.90;73.23;;;21.40;99.90;;;;;;4975669;28;20403;-77
2023/09/11 01:47:17;;;;;;;107.40;71.43;;;21.40;99.90;;;;;;4975667;28;20415;-77
2023/09/11 01:49:44;;;;;;;101.30;62.37;;;21.40;99.90;;;;;;4958289;28;20939;-78
2023/09/11 01:52:11;;;;;;;106.63;63.20;;;21.40;99.90;;;;;;4975906;28;20771;-77
2023/09/11 01:54:37;;;;;;;109.90;78.87;;;21.50;99.90;;;;;;4958136;28;20443;-78
2023/09/11 01:57:09;;;;;;;105.50;73.50;;;21.50;99.90;;;;;;4975511;28;20911;-77
2023/09/11 01:59:35;;;;;;;106.63;71.63;;;21.50;99.90;;;;;;4975802;28;20946;-78
2023/09/11 02:02:00;;;;;;;102.60;67.03;;;21.50;99.90;;;;;;4975276;28;20430;-77
2023/09/11 02:04:26;;;;;;;102.50;60.87;;;21.40;99.90;;;;;;4975301;28;20191;-77
2023/09/11 02:06:52;;;;;;;100.33;61.87;;;21.40;99.90;;;;;;4975273;28;20168;-77
2023/09/11 02:09:17;;;;;;;104.97;65.53;;;21.50;99.90;;;;;;4975210;28;20163;-77
2023/09/11 02:11:43;;;;;;;105.83;72.87;;;21.40;99.90;;;;;;4975163;28;20198;-78
2023/09/11 02:14:09;;;;;;;100.37;64.50;;;21.40;99.90;;;;;;4975182;28;20247;-77
2023/09/11 02:16:34;;;;;;;108.93;68.77;;;21.30;99.90;;;;;;4975126;28;20175;-77
2023/09/11 02:19:00;;;;;;;105.83;72.07;;;21.30;99.90;;;;;;4974951;28;20195;-78
2023/09/11 02:21:26;;;;;;;108.40;68.70;;;21.30;99.90;;;;;;4974973;28;20551;-77
2023/09/11 02:23:51;;;;;;;111.63;77.50;;;21.40;99.90;;;;;;4974438;28;20637;-77
2023/09/11 02:26:17;;;;;;;108.00;71.33;;;21.30;99.90;;;;;;4975222;28;20172;-77
2023/09/11 02:28:43;;;;;;;103.07;68.37;;;21.30;99.90;;;;;;4957553;28;20167;-77
2023/09/11 02:31:08;;;;;;;104.90;68.47;;;21.30;99.90;;;;;;4974795;28;20223;-77
2023/09/11 02:33:34;;;;;;;104.03;68.70;;;21.30;99.90;;;;;;4974800;28;20174;-77
2023/09/11 02:36:00;;;;;;;99.73;61.23;;;21.30;99.90;;;;;;4975365;28;20168;-77
2023/09/11 02:38:25;;;;;;;100.70;61.60;;;21.20;99.90;;;;;;4974615;28;20290;-77
2023/09/11 02:40:52;;;;;;;108.57;69.50;;;21.20;99.90;;;;;;4974866;28;20223;-77
2023/09/11 02:43:17;;;;;;;103.30;69.13;;;21.20;99.90;;;;;;4975028;28;20171;-77
2023/09/11 02:45:44;;;;;;;101.03;60.73;;;21.20;99.90;;;;;;4974638;28;20403;-77
2023/09/11 02:48:10;;;;;;;103.37;63.33;;;21.10;99.90;;;;;;4974933;28;20179;-77
2023/09/11 02:50:37;;;;;;;110.57;72.60;;;21.20;99.90;;;;;;4974697;28;20427;-77
2023/09/11 02:53:08;;;;;;;111.33;71.07;;;21.10;99.90;;;;;;4974794;28;20403;-77
2023/09/11 02:55:37;;;;;;;104.13;64.90;;;21.10;99.90;;;;;;4957250;28;20454;-77
2023/09/11 02:58:03;;;;;;;98.13;59.53;;;20.90;99.90;;;;;;4974324;28;20435;-77
2023/09/11 03:03:03;;;;;;;105.53;59.67;;;20.90;99.90;;;;;;4994494;28;20461;-77
2023/09/11 03:05:32;;;;;;;103.13;66.27;;;21.00;99.90;;;;;;4995646;28;20485;-78
2023/09/11 03:08:01;;;;;;;98.47;60.80;;;21.00;99.90;;;;;;4995307;28;20441;-78
2023/09/11 03:10:28;;;;;;;98.40;54.57;;;20.90;99.90;;;;;;4995767;28;20783;-78
2023/09/11 03:12:54;;;;;;;94.00;53.13;;;20.80;99.90;;;;;;4995352;28;20414;-77
2023/09/11 03:15:27;;;;;;;98.27;56.73;;;20.70;99.90;;;;;;4994992;28;20426;-78
2023/09/11 03:17:53;;;;;;;95.93;53.57;;;20.70;99.90;;;;;;4995208;28;20405;-77
2023/09/11 03:20:18;;;;;;;95.97;52.20;;;20.70;99.90;;;;;;4995067;28;20407;-77
2023/09/11 03:22:44;;;;;;;97.90;57.13;;;20.70;99.90;;;;;;4994914;28;20209;-78
2023/09/11 03:25:13;;;;;;;99.77;60.10;;;20.70;99.90;;;;;;4994809;28;20161;-78
2023/09/11 03:27:39;;;;;;;97.30;59.73;;;20.80;99.90;;;;;;4994937;28;20170;-77
2023/09/11 03:30:05;;;;;;;100.17;55.80;;;20.70;99.90;;;;;;4995116;28;20763;-78
2023/09/11 03:32:31;;;;;;;92.13;53.83;;;20.60;99.90;;;;;;4994908;28;20187;-77
2023/09/11 03:34:56;;;;;;;100.67;55.93;;;20.60;99.90;;;;;;4995188;28;20413;-77
2023/09/11 03:37:23;;;;;;;95.83;53.90;;;20.50;99.90;;;;;;4998993;28;20186;-78
2023/09/11 03:39:48;;;;;;;96.03;55.10;;;20.60;99.90;;;;;;4999568;28;20668;-77
2023/09/11 03:42:16;;;;;;;99.13;60.57;;;20.50;99.90;;;;;;4998878;28;20432;-78
2023/09/11 03:44:42;;;;;;;99.03;59.27;;;20.50;99.90;;;;;;4998594;28;20170;-77
2023/09/11 03:47:08;;;;;;;97.17;56.30;;;20.50;99.90;;;;;;4999137;28;20394;-77
2023/09/11 03:49:33;;;;;;;93.97;54.10;;;20.50;99.90;;;;;;4998624;28;20509;-77
2023/09/11 03:51:59;;;;;;;98.00;57.80;;;20.50;99.90;;;;;;4998900;28;20191;-78
2023/09/11 03:54:25;;;;;;;93.90;57.90;;;20.50;99.90;;;;;;4998605;28;20254;-78
2023/09/11 03:56:51;;;;;;;96.70;60.00;;;20.50;99.90;;;;;;4998897;28;20168;-77
2023/09/11 03:59:17;;;;;;;95.27;55.87;;;20.40;99.90;;;;;;4998412;28;20445;-77
2023/09/11 04:01:42;;;;;;;93.80;55.27;;;20.30;99.90;;;;;;4998859;28;20567;-77
2023/09/11 04:04:08;;;;;;;99.83;64.07;;;20.40;99.90;;;;;;4998478;28;20163;-77
2023/09/11 04:06:33;;;;;;;94.57;55.07;;;20.30;99.90;;;;;;4998657;28;20569;-77
2023/09/11 04:08:59;;;;;;;94.20;56.03;;;20.40;99.90;;;;;;4997977;28;20171;-78
2023/09/11 04:11:25;;;;;;;99.13;60.10;;;20.40;99.90;;;;;;4998550;28;20215;-77
2023/09/11 04:13:50;;;;;;;95.30;52.23;;;20.40;99.90;;;;;;4998284;28;20222;-77
2023/09/11 04:16:16;;;;;;;94.23;57.47;;;20.40;99.90;;;;;;4998620;28;20174;-78
2023/09/11 04:18:42;;;;;;;101.07;60.90;;;20.40;99.90;;;;;;4997830;28;20266;-77
2023/09/11 04:21:08;;;;;;;96.47;59.23;;;20.30;99.90;;;;;;4996634;28;20599;-77
2023/09/11 04:23:34;;;;;;;99.70;59.30;;;20.30;99.90;;;;;;4996581;28;20395;-77
2023/09/11 04:26:00;;;;;;;99.80;56.93;;;20.20;99.90;;;;;;4996537;28;20410;-77
2023/09/11 04:28:26;;;;;;;95.23;58.07;;;20.20;99.90;;;;;;4996509;28;20923;-77
2023/09/11 04:30:51;;;;;;;95.10;57.57;;;20.20;99.90;;;;;;4978944;28;20648;-77
2023/09/11 04:33:18;;;;;;;98.80;57.10;;;20.20;99.90;;;;;;4996461;28;20194;-77
2023/09/11 04:35:44;;;;;;;99.60;63.83;;;20.10;99.90;;;;;;4978968;28;20190;-77
2023/09/11 04:38:10;;;;;;;94.97;57.50;;;20.10;99.90;;;;;;4996217;28;20461;-77
2023/09/11 04:40:36;;;;;;;92.07;55.03;;;20.20;99.90;;;;;;4996177;28;20163;-78
2023/09/11 04:43:02;;;;;;;97.30;57.33;;;20.10;99.90;;;;;;4996229;28;20424;-77
2023/09/11 04:45:27;;;;;;;94.63;57.40;;;20.10;99.90;;;;;;4997726;28;20407;-79
2023/09/11 04:47:53;;;;;;;96.83;55.33;;;20.00;99.90;;;;;;4996039;28;20421;-77
2023/09/11 04:50:19;;;;;;;100.00;61.10;;;20.00;99.90;;;;;;4996246;28;20163;-78
2023/09/11 04:52:44;;;;;;;94.73;57.63;;;20.00;99.90;;;;;;4996343;28;20693;-77
2023/09/11 04:55:10;;;;;;;97.47;57.53;;;20.00;99.90;;;;;;4996327;28;20218;-77
2023/09/11 04:57:36;;;;;;;101.03;63.80;;;20.00;99.90;;;;;;4996023;28;20171;-77
2023/09/11 05:00:09;;;;;;;98.07;63.13;;;20.00;99.90;;;;;;4996015;28;20454;-79
2023/09/11 05:02:38;;;;;;;100.70;62.20;;;20.00;99.90;;;;;;4996110;28;20454;-77
2023/09/11 05:05:04;;;;;;;99.90;61.53;;;20.00;99.90;;;;;;4995860;28;20398;-77
2023/09/11 05:07:30;;;;;;;103.33;59.20;;;19.90;99.90;;;;;;4978338;28;20469;-77
2023/09/11 05:09:56;;;;;;;104.33;63.93;;;19.90;99.90;;;;;;4996034;28;20460;-77
2023/09/11 05:12:25;;;;;;;95.63;49.83;;;19.90;99.90;;;;;;4995606;28;20904;-77
2023/09/11 05:14:50;;;;;;;93.70;51.63;;;19.90;99.90;;;;;;4995981;28;20164;-77
2023/09/11 05:17:18;;;;;;;100.67;56.60;;;19.90;99.90;;;;;;4995643;28;20405;-77
2023/09/11 05:19:43;;;;;;;95.43;57.23;;;19.90;99.90;;;;;;4978065;28;20191;-77
2023/09/11 05:22:10;;;;;;;103.20;68.83;;;20.00;99.90;;;;;;4995670;28;20465;-77
2023/09/11 05:24:36;;;;;;;105.00;59.33;;;20.00;99.90;;;;;;4995547;28;20898;-77
2023/09/11 05:27:01;;;;;;;100.77;57.63;;;20.00;99.90;;;;;;4995178;28;20167;-76
2023/09/11 05:29:27;;;;;;;97.80;61.83;;;20.00;99.90;;;;;;4995614;28;20205;-76
2023/09/11 05:31:52;;;;;;;96.27;64.60;;;20.00;99.90;;;;;;4977780;28;20195;-76
2023/09/11 05:34:18;;;;;;;95.13;62.03;;;20.00;99.90;;;;;;4995531;28;20669;-76
2023/09/11 05:36:44;;;;;;;98.17;60.03;;;20.00;99.90;;;;;;4995413;28;20178;-77
2023/09/11 05:39:10;;;;;;;101.97;67.00;;;20.00;99.90;;;;;;4977771;28;20842;-77
2023/09/11 05:41:36;;;;;;;94.77;61.10;;;20.00;99.90;;;;;;4995162;28;20430;-77
2023/09/11 05:44:02;;;;;;;101.93;66.37;;;20.00;99.90;;;;;;4996172;28;20163;-77
2023/09/11 05:46:29;;;;;;;96.63;58.80;;;20.00;99.90;;;;;;4995174;28;20167;-76
2023/09/11 05:48:55;;;;;;;99.00;67.77;;;20.00;99.90;;;;;;4995132;28;20457;-76
2023/09/11 05:51:20;;;;;;;95.13;62.60;;;20.00;99.90;;;;;;4977494;28;21032;-77
2023/09/11 05:53:46;;;;;;;99.60;57.87;;;20.00;99.90;;;;;;4994984;28;20175;-77
2023/09/11 05:56:11;;;;;;;95.03;58.20;;;20.00;99.90;;;;;;4994906;28;20179;-76
2023/09/11 05:58:37;;;;;;;95.13;56.17;;;20.10;99.90;;;;;;4994117;28;20644;-77
2023/09/11 06:01:03;;;;;;;96.37;59.63;;;20.10;99.90;;;;;;4994898;28;20202;-76
2023/09/11 06:03:31;;;;;;;96.40;59.27;;;20.10;99.90;;;;;;4978417;28;20168;-77
2023/09/11 06:05:57;;;;;;;98.00;54.30;;;20.20;99.90;;;;;;4977234;28;20415;-77
2023/09/11 06:08:22;;;;;;;96.73;56.00;;;20.20;99.90;;;;;;4994807;28;20402;-79
2023/09/11 06:10:48;;;;;;;96.60;55.37;;;20.20;99.90;;;;;;4994944;28;20460;-76
2023/09/11 06:13:14;;;;;;;97.37;56.60;;;20.20;99.90;;;;;;4994658;28;20171;-76
2023/09/11 06:15:40;;;;;;;99.40;61.53;;;20.20;99.90;;;;;;4995023;28;20413;-76
2023/09/11 06:18:05;;;;;;;98.63;62.10;;;20.30;99.90;;;;;;4977676;28;20616;-79
2023/09/11 06:20:31;;;;;;;104.63;57.57;;;20.40;99.90;;;;;;4995980;28;20182;-80
2023/09/11 06:22:57;;;;;;;99.80;59.10;;;20.60;99.90;;;;;;4996088;28;20675;-80
2023/09/11 06:25:22;;;;;;;97.90;69.37;;;20.80;99.90;;;;;;4995529;28;20163;-80
2023/09/11 06:27:48;;;;;;;105.87;77.90;;;21.00;99.90;;;;;;4995704;28;20606;-80
2023/09/11 06:30:14;;;;;;;104.27;78.30;;;21.00;99.90;;;;;;4995682;28;20168;-80
2023/09/11 06:32:39;;;;;;;113.00;93.57;;;21.20;99.90;;;;;;4996198;28;20334;-81
2023/09/11 06:35:06;;;;;;;116.30;93.17;;;21.30;99.90;;;;;;4997402;28;20226;-81
2023/09/11 06:37:32;;;;;;;112.47;98.60;;;21.30;99.90;;;;;;4997173;28;20178;-81
2023/09/11 06:39:57;;;;;;;109.27;88.97;;;21.40;99.90;;;;;;4997404;28;20458;-80
2023/09/11 06:42:24;;;;;;;107.07;80.37;;;21.40;99.90;;;;;;4995751;28;20434;-81
2023/09/11 06:44:51;;;;;;;104.40;76.40;;;21.50;99.90;;;;;;4997563;28;20178;-82
2023/09/11 06:47:17;;;;;;;107.50;65.77;;;21.60;99.90;;;;;;4998303;28;20411;-81
2023/09/11 06:49:43;;;;;;;99.17;56.60;;;21.60;99.90;;;;;;4996867;28;20508;-82
2023/09/11 06:52:09;;;;;;;103.87;54.00;;;21.70;99.90;;;;;;4997330;28;20473;-81
2023/09/11 06:54:34;;;;;;;95.70;50.80;;;21.80;99.90;;;;;;4997761;28;20171;-81
2023/09/11 06:57:00;;;;;;;90.77;45.07;;;21.80;99.90;;;;;;4997901;28;20171;-81
2023/09/11 06:59:26;;;;;;;90.50;40.80;;;21.80;99.90;;;;;;4997266;28;20199;-82
2023/09/11 07:01:55;;;;;;;89.77;42.50;;;21.90;99.90;;;;;;4980080;28;20213;-82
2023/09/11 07:04:20;;;;;;;88.00;43.17;;;22.00;99.90;;;;;;4997745;28;20439;-81
2023/09/11 07:06:46;;;;;;;95.90;44.90;;;22.00;99.90;;;;;;4997402;28;20409;-81
2023/09/11 07:09:12;;;;;;;92.13;48.43;;;22.00;99.90;;;;;;4998451;28;20179;-81
2023/09/11 07:11:37;;;;;;;96.30;48.63;;;22.00;99.90;;;;;;4979817;28;20226;-81
2023/09/11 07:14:05;;;;;;;98.03;47.13;;;22.10;99.90;;;;;;4998289;28;20159;-81
2023/09/11 07:16:31;;;;;;;91.57;47.60;;;22.10;99.90;;;;;;4980186;28;20179;-81
2023/09/11 07:18:57;;;;;;;92.63;46.47;;;22.20;99.90;;;;;;4998106;28;20489;-81
2023/09/11 07:21:22;;;;;;;100.70;50.40;;;22.30;99.90;;;;;;4980298;28;20462;-81
2023/09/11 07:23:48;;;;;;;94.13;49.00;;;22.30;99.90;;;;;;4980409;28;20648;-81
2023/09/11 07:26:14;;;;;;;90.93;42.73;;;22.30;99.90;;;;;;4980235;28;20186;-81
2023/09/11 07:28:53;;;;;;;95.37;47.10;;;22.40;99.90;;;;;;4997611;28;20176;-81
2023/09/11 07:31:19;;;;;;;95.87;52.37;;;22.40;99.90;;;;;;4980453;28;20191;-81
2023/09/11 07:33:44;;;;;;;97.27;51.30;;;22.30;99.90;;;;;;4998300;28;20418;-81
2023/09/11 07:36:10;;;;;;;95.53;48.17;;;22.40;99.90;;;;;;4998168;28;20176;-81
2023/09/11 07:38:36;;;;;;;97.40;48.13;;;22.30;99.90;;;;;;4997993;28;20597;-81
2023/09/11 07:41:01;;;;;;;93.93;49.77;;;22.20;99.90;;;;;;4998187;28;20175;-81
2023/09/11 07:43:27;;;;;;;92.73;50.43;;;22.30;99.90;;;;;;4997885;28;20159;-81
2023/09/11 07:45:53;;;;;;;98.30;56.97;;;22.30;99.90;;;;;;4997927;28;20535;-80
2023/09/11 07:48:18;;;;;;;96.33;50.10;;;22.40;99.90;;;;;;4997820;28;20167;-80
2023/09/11 07:50:44;;;;;;;99.30;49.53;;;22.50;99.90;;;;;;4997457;28;20636;-80
2023/09/11 07:53:10;;;;;;;89.93;42.13;;;22.60;99.90;;;;;;4998154;28;20250;-81
2023/09/11 07:55:37;;;;;;;86.20;38.47;;;22.70;99.90;;;;;;4997510;28;20190;-80
2023/09/11 07:58:03;;;;;;;94.77;41.87;;;22.70;99.90;;;;;;4996846;28;20473;-80
2023/09/11 08:00:30;;;;;;;89.37;40.90;;;22.80;99.90;;;;;;4997130;28;20414;-80
2023/09/11 08:02:56;;;;;;;94.37;43.33;;;22.80;99.90;;;;;;4998150;28;20480;-81
2023/09/11 08:05:22;;;;;;;99.93;44.37;;;22.80;99.90;;;;;;4997945;28;20398;-81
2023/09/11 08:07:50;;;;;;;96.47;43.47;;;22.90;99.90;;;;;;4997263;28;20406;-81
2023/09/11 08:10:16;;;;;;;87.77;35.73;;;22.90;99.90;;;;;;4997453;28;20164;-80
2023/09/11 08:12:42;;;;;;;87.27;36.67;;;22.90;99.90;;;;;;4996148;28;20445;-80
2023/09/11 08:15:08;;;;;;;86.23;39.17;;;22.90;99.90;;;;;;4997306;28;20179;-80
2023/09/11 08:17:34;;;;;;;82.87;39.10;;;22.90;99.90;;;;;;4980065;28;20406;-80
2023/09/11 08:19:59;;;;;;;91.57;39.27;;;23.00;99.90;;;;;;4997294;28;20449;-81
2023/09/11 08:22:25;;;;;;;92.03;43.97;;;23.00;99.90;;;;;;4980687;28;20274;-81
2023/09/11 08:24:51;;;;;;;93.93;40.70;;;23.10;99.90;;;;;;5000741;28;20528;-81
2023/09/11 08:27:16;;;;;;;95.60;38.50;;;23.10;99.90;;;;;;5000232;28;20231;-80
2023/09/11 08:29:42;;;;;;;86.00;38.77;;;23.20;99.90;;;;;;5001210;28;20174;-81
2023/09/11 08:32:08;;;;;;;91.73;39.27;;;23.20;99.90;;;;;;5000882;28;20265;-81
2023/09/11 08:34:34;;;;;;;85.50;36.00;;;23.20;99.70;;;;;;5001056;28;20230;-81
2023/09/11 08:36:59;;;;;;;93.93;35.57;;;23.30;96.50;;;;;;5000765;28;20184;-81
2023/09/11 08:39:25;;;;;;;91.37;35.33;;;23.40;95.80;;;;;;4982912;28;20199;-81
2023/09/11 08:41:52;;;;;;;93.00;35.60;;;23.40;94.30;;;;;;5000543;28;20229;-80
2023/09/11 08:44:17;;;;;;;89.17;34.27;;;23.50;94.40;;;;;;5000632;28;20171;-81
2023/09/11 08:46:46;;;;;;;84.03;31.70;;;23.60;90.90;;;;;;4983162;28;20457;-81
2023/09/11 08:49:15;;;;;;;87.20;34.27;;;23.70;89.70;;;;;;4982767;28;20183;-81
2023/09/11 08:51:53;;;;;;;85.70;31.30;;;23.70;88.90;;;;;;4982680;28;21024;-81
2023/09/11 08:54:23;;;;;;;85.37;35.87;;;23.80;83.90;;;;;;5000691;28;20433;-81
2023/09/11 08:56:49;;;;;;;86.53;32.27;;;23.90;77.50;;;;;;5000752;28;20383;-80
2023/09/11 08:59:18;;;;;;;86.03;31.63;;;24.00;68.80;;;;;;5000553;28;20460;-81
2023/09/11 09:01:46;;;;;;;95.73;31.57;;;24.00;67.60;;;;;;5000060;28;20450;-80
2023/09/11 09:04:12;;;;;;;85.20;24.47;;;24.10;66.40;;;;;;4982735;28;20419;-81
2023/09/11 09:06:38;;;;;;;81.07;24.03;;;24.20;56.30;;;;;;5000661;28;20410;-81
2023/09/11 09:09:04;;;;;;;88.93;34.17;;;24.30;44.30;;;;;;5000787;28;20465;-81
2023/09/11 09:11:31;;;;;;;85.90;21.40;;;24.40;57.50;;;;;;4999871;28;20187;-81
2023/09/11 09:13:58;;;;;;;80.97;26.43;;;24.50;30.00;;;;;;5000856;28;20290;-81
2023/09/11 09:16:24;;;;;;;82.97;21.00;;;24.60;43.30;;;;;;5001017;28;20427;-81
2023/09/11 09:18:49;;;;;;;86.20;16.17;;;24.70;36.10;;;;;;4999757;28;20454;-81
2023/09/11 09:21:25;;;;;;;79.13;13.60;;;24.80;34.80;;;;;;4999558;28;20190;-81
2023/09/11 09:23:52;;;;;;;78.13;10.67;;;24.90;28.20;;;;;;4999462;28;20461;-80
2023/09/11 09:26:18;;;;;;;83.23;11.07;;;25.00;11.00;;;;;;5058952;23;20433;-80
2023/09/11 09:28:46;;;;;;;80.40;11.30;;;25.10;4.70;;;;;;5000167;28;20387;-80
2023/09/11 09:31:25;;;;;;;80.90;10.23;;;25.20;2.90;;;;;;4994311;28;20443;-80
2023/09/11 09:33:55;;;;;;;79.30;8.50;;;25.40;1.00;;;;;;4980611;28;20395;-80
2023/09/11 09:36:22;;;;;;;85.03;9.13;;;25.50;1.00;;;;;;4980413;28;20418;-81
2023/09/11 09:38:47;;;;;;;78.17;8.23;;;25.60;1.00;;;;;;4980870;28;20451;-81
2023/09/11 09:41:14;;;;;;;76.33;8.33;;;25.70;1.00;;;;;;4980021;28;20501;-81
2023/09/11 09:43:39;;;;;;;81.73;8.83;;;25.90;1.00;;;;;;4979748;28;20168;-82
2023/09/11 09:46:19;;;;;;;79.67;9.20;;;25.90;1.00;;;;;;4979066;28;20904;-81
2023/09/11 09:48:44;;;;;;;84.30;10.43;;;26.10;1.00;;;;;;4979160;28;20172;-81
2023/09/11 09:51:10;;;;;;;78.50;9.30;;;26.20;1.00;;;;;;4979011;28;20423;-81
2023/09/11 09:53:46;;;;;;;77.07;7.93;;;26.30;1.00;;;;;;4980026;28;20235;-81
2023/09/11 09:56:13;;;;;;;78.60;9.43;;;26.30;1.00;;;;;;4979894;28;20238;-81
2023/09/11 09:58:40;;;;;;;78.20;10.03;;;26.40;1.00;;;;;;4962982;28;20451;-81
2023/09/11 10:01:15;;;;;;;82.30;9.43;;;26.60;1.00;;;;;;4961498;28;20438;-81
2023/09/11 10:03:52;;;;;;;76.37;10.13;;;26.80;1.00;;;;;;4962260;28;20403;-80
2023/09/11 10:06:28;;;;;;;74.00;9.67;;;26.90;1.00;;;;;;4980200;28;20387;-81
2023/09/11 10:09:12;;;;;;;76.87;9.13;;;27.10;1.00;;;;;;4962417;28;20398;-81
2023/09/11 10:11:40;;;;;;;83.10;8.80;;;27.40;1.00;;;;;;4979504;28;20485;-81
2023/09/11 10:14:08;;;;;;;80.30;13.37;;;27.50;1.00;;;;;;4961966;28;20412;-81
2023/09/11 10:16:34;;;;;;;86.53;16.80;;;27.60;1.00;;;;;;4979770;28;20418;-81
2023/09/11 10:19:00;;;;;;;90.10;21.37;;;27.90;1.00;;;;;;4979508;28;20446;-80
2023/09/11 10:21:27;;;;;;;83.60;20.47;;;28.20;1.00;;;;;;4961758;28;20428;-81
2023/09/11 10:23:53;;;;;;;83.67;25.60;;;28.50;1.00;;;;;;4979323;28;20851;-81
2023/09/11 10:26:51;;;;;;;82.57;24.07;;;28.60;1.00;;;;;;4978957;28;20485;-81
2023/09/11 10:29:24;;;;;;;83.13;18.97;;;28.80;1.00;;;;;;4925980;28;20438;-81
2023/09/11 10:32:05;;;;;;;79.37;15.70;;;28.80;1.00;;;;;;4979774;28;20435;-81
2023/09/11 10:34:31;;;;;;;81.30;15.70;;;28.70;1.00;;;;;;4979437;28;20395;-81
2023/09/11 10:36:59;;;;;;;79.50;12.67;;;28.90;1.00;;;;;;4979826;28;20761;-81
2023/09/11 10:39:24;;;;;;;81.90;14.27;;;29.30;1.00;;;;;;4977121;28;20968;-80
2023/09/11 10:41:50;;;;;;;81.60;13.87;;;29.50;1.00;;;;;;4977391;28;20457;-81
2023/09/11 10:44:16;;;;;;;79.73;12.50;;;29.80;1.00;;;;;;4977477;28;20170;-81
2023/09/11 10:46:51;;;;;;;88.03;13.77;;;29.90;1.00;;;;;;4977507;28;20441;-81
2023/09/11 10:49:22;;;;;;;80.07;11.43;;;30.20;1.00;;;;;;4977388;28;20398;-81
2023/09/11 10:51:49;;;;;;;85.23;12.97;;;30.10;1.00;;;;;;4977288;28;20433;-81
2023/09/11 10:54:20;;;;;;;76.07;8.70;;;30.10;1.00;;;;;;4977100;28;20407;-81
2023/09/11 10:56:49;;;;;;;79.47;9.87;;;30.30;1.00;;;;;;4977734;28;20477;-81
2023/09/11 10:59:16;;;;;;;78.07;10.20;;;30.20;1.00;;;;;;4960457;28;20473;-81
2023/09/11 11:01:46;;;;;;;81.53;7.30;;;30.40;1.00;;;;;;4959697;28;20832;-81
2023/09/11 11:04:15;;;;;;;74.53;6.90;;;30.40;1.00;;;;;;4960173;28;20404;-81
2023/09/11 11:06:46;;;;;;;79.47;6.90;;;30.50;1.00;;;;;;4977264;28;20401;-81
2023/09/11 11:09:26;;;;;;;80.40;7.90;;;30.60;1.00;;;;;;4977899;28;20422;-81
2023/09/11 11:12:01;;;;;;;82.00;8.33;;;30.90;1.00;;;;;;4978579;28;20487;-81
2023/09/11 11:14:27;;;;;;;80.83;8.90;;;30.90;1.00;;;;;;4978446;28;20460;-81
2023/09/11 11:17:00;;;;;;;87.30;8.63;;;31.00;1.00;;;;;;4978534;28;20413;-81
2023/09/11 11:19:28;;;;;;;81.63;8.40;;;31.20;1.00;;;;;;4978865;28;20214;-81
2023/09/11 11:21:54;;;;;;;87.37;8.97;;;31.30;1.00;;;;;;4978813;28;20478;-81
2023/09/11 11:24:24;;;;;;;80.77;8.50;;;31.50;1.00;;;;;;4978583;28;20906;-81
2023/09/11 11:27:01;;;;;;;78.50;7.97;;;31.50;1.00;;;;;;4964381;28;20196;-81
2023/09/11 11:29:28;;;;;;;86.53;10.27;;;31.50;1.00;;;;;;4977540;28;20409;-81
2023/09/11 11:31:57;;;;;;;90.90;9.23;;;31.50;1.00;;;;;;4976746;28;20480;-81
2023/09/11 11:34:27;;;;;;;89.47;8.20;;;31.50;1.00;;;;;;4976844;28;20425;-81
2023/09/11 11:36:55;;;;;;;81.17;8.70;;;31.70;1.00;;;;;;4976957;28;20771;-81
2023/09/11 11:39:22;;;;;;;80.27;7.93;;;31.60;1.00;;;;;;4976659;28;20456;-81
2023/09/11 11:41:50;;;;;;;77.37;6.70;;;31.70;1.00;;;;;;4978126;28;20819;-81
2023/09/11 11:44:17;;;;;;;85.70;7.03;;;31.80;1.00;;;;;;4976445;28;20409;-81
2023/09/11 11:46:46;;;;;;;88.17;6.73;;;31.90;1.00;;;;;;4978523;28;20948;-81
2023/09/11 11:49:13;;;;;;;89.57;8.27;;;31.90;1.00;;;;;;4978135;28;20417;-81
2023/09/11 11:51:44;;;;;;;81.67;7.90;;;32.00;1.00;;;;;;4976045;28;20522;-81
2023/09/11 11:54:29;;;;;;;83.40;8.80;;;32.20;1.00;;;;;;4977538;28;20436;-81
2023/09/11 11:56:59;;;;;;;78.67;7.73;;;32.30;1.00;;;;;;4978317;28;20421;-81
2023/09/11 11:59:31;;;;;;;88.53;8.50;;;32.40;1.00;;;;;;4981251;28;20440;-81
2023/09/11 12:01:56;;;;;;;77.50;6.90;;;32.30;1.00;;;;;;4980131;28;20784;-81
2023/09/11 12:04:24;;;;;;;76.03;6.30;;;32.30;1.00;;;;;;4980877;28;20437;-82
2023/09/11 12:06:54;;;;;;;77.27;7.97;;;32.40;1.00;;;;;;4981131;28;20169;-82
2023/09/11 12:09:21;;;;;;;76.57;6.47;;;32.50;1.00;;;;;;4981408;28;20442;-81
2023/09/11 12:11:47;;;;;;;81.10;6.70;;;32.60;1.00;;;;;;4981044;28;20467;-81
2023/09/11 12:14:13;;;;;;;77.70;7.20;;;32.50;1.00;;;;;;4981362;28;20476;-81
2023/09/11 12:16:40;;;;;;;78.67;9.37;;;32.60;1.00;;;;;;4980833;28;20477;-82
2023/09/11 12:19:06;;;;;;;78.00;7.67;;;32.60;1.00;;;;;;4981077;28;20478;-81
2023/09/11 12:21:32;;;;;;;75.27;7.20;;;32.70;1.00;;;;;;4981006;28;20434;-81
2023/09/11 12:23:59;;;;;;;82.83;9.60;;;32.80;1.00;;;;;;4981040;28;20763;-81
2023/09/11 12:26:29;;;;;;;77.80;10.63;;;32.80;1.00;;;;;;4979993;28;20194;-81
2023/09/11 12:28:55;;;;;;;79.63;10.80;;;32.80;1.00;;;;;;4981333;28;20403;-81
2023/09/11 12:31:22;;;;;;;79.97;9.27;;;32.70;1.00;;;;;;4980926;28;20445;-80